Startpagina
METAR-TAF:

METAR-TAF

Vliegvelden :

Internationale luchthaven Chongqing Jiangbei

Tsjoengking, China

breedte: 29-31N, lengte: 106-29E, hoogte: 351 m

Actueel weer

Dit bericht is 52 minuten geleden gemaakt, om 19:00 UTC
Wind 4 kt uit het oostzuidoosten, variërend tussen het oostnoordoosten en het zuidzuidoosten
Temperatuur 26°C
Vochtigheid 84%
Druk 1002 hPa
Zicht 10 km of meer
geen wolken onder 1500 m en geen cumulonimbus

METAR: ZUCK 231900Z 12002MPS 070V160 CAVOK 26/23 Q1002 NOSIG

Tijdstip: 03:52 (19:52 UTC)

Verwachting

Dit bericht is 4 uur en het 50 minuten geleden gemaakt, om 15:02 UTC
Verwachting geldig van 23 om 18 UTC tot 24 om 18 UTC
Wind 6 kt uit het noordnoordoosten
Zicht: 6000 m
Verspreide wolken op 5000 ft

TAF: ZUCK 231502Z 2318/2418 03003MPS 6000 SCT050 TX31/2408Z TN24/2322Z

Waarnemingen en weersverwachtingen van meer dan 4000 vliegvelden (METAR en TAF).

De beschikbare stations zijn de gele en rode punten op de kaart.

Ga met uw muis naar het station om de naam te zien.

Klik dan om waarnemingen en weersverwachtingen te zien.

kaart wijzigen: klik op de groene knoppen met een zwart kruis om in te zoomen, op de groene knop met een streepje om uit te zoomen of op de groene pijlen voor aangrenzende kaarten.


METAR-TAF: